• Join FlightAware (Why Join?)
  • Login
  • US Flag 
09:28AM EDT


 

Airport Tracker/Info


-or-


 

Live Flight TrackerFlight Track Log ✈ UAL4846 ✈ 24-Apr-2013 ✈ KEWR - KPVD

Flight Track Log - Related Links

Times and Time Zones

All times are in EDT time to prevent confusion due to time zone crossing. See the UAL4846 flight status page for this flight to view local times or setup timezone preferences in your user account.

Time Position Orientation Groundspeed Altitude Reporting Facility
EDT Latitude Longitude Course Direction KTS MPH feet Rate Location/Type
12:16PM 40.8643 -73.7297 63° Northeast  Level Estimated
12:17PM 40.8887 -73.6668 63° Northeast  Level Estimated
12:18PM 40.9131 -73.6038 63° Northeast  Level Estimated
12:19PM 40.9375 -73.5408 63° Northeast  Level Estimated
12:20PM 40.9618 -73.4778 63° Northeast  Level Estimated
12:21PM 40.9860 -73.4147 63° Northeast  Level Estimated
12:22PM 41.0103 -73.3516 63° Northeast  Level Estimated
12:23PM 41.0345 -73.2884 63° Northeast  Level Estimated
12:24PM 41.0587 -73.2252 63° Northeast  Level Estimated
12:25PM 41.0828 -73.1619 63° Northeast  Level Estimated
12:26PM 41.1069 -73.0986 63° Northeast  Level Estimated
12:27PM 41.1310 -73.0352 63° Northeast  Level Estimated
12:28PM 41.1550 -72.9718 63° Northeast  Level Estimated
12:29PM 41.1790 -72.9083 63° Northeast  Level Estimated
12:30PM 41.2030 -72.8448 63° Northeast  Level Estimated
12:31PM 41.2269 -72.7813 63° Northeast  Level Estimated
12:32PM 41.2508 -72.7177 63° Northeast  Level Estimated
12:33PM 41.2747 -72.6540 63° Northeast  Level Estimated
12:34PM 41.2985 -72.5903 64° Northeast  Level Estimated
12:35PM 41.3223 -72.5266 64° Northeast  Level Estimated
12:36PM 41.3460 -72.4628 64° Northeast  Level Estimated
12:37PM 41.3697 -72.3990 64° Northeast  Level Estimated
12:38PM 41.3934 -72.3351 64° Northeast  Level Estimated
12:39PM 41.4171 -72.2712 64° Northeast  Level Estimated
12:40PM 41.4407 -72.2072 64° Northeast  Level Estimated
12:41PM 41.4642 -72.1432 64° Northeast  Level Estimated
12:42PM 41.4878 -72.0791 64° Northeast  Level Estimated
12:43PM 41.5113 -72.0150 64° Northeast  Level Estimated
12:44PM 41.5348 -71.9509 64° Northeast  Level Estimated
12:45PM 41.5582 -71.8867 64° Northeast  Level Estimated
12:46PM 41.5816 -71.8224 64° Northeast  Level Estimated
12:47PM 41.6049 -71.7581 64° Northeast  Level Estimated
12:48PM 41.6283 -71.6938 64° Northeast  Level Estimated
12:49PM 41.6516 -71.6294 64° Northeast  Level Estimated
12:50PM 41.6748 -71.5650 64° Northeast  Level Estimated
12:51PM 41.6981 -71.5005 64° Northeast  Level Estimated
12:52PM 41.7212 -71.4360 64° Northeast  Level Estimated
12:53PM 41.7240 -71.4282 64° Northeast  Level Estimated
12:54PM 41.7240 -71.4282 226° Southwest  Level Estimated
12:55PM 41.7240 -71.4282 226° Southwest  Level Estimated
12:56PM 41.7240 -71.4282 226° Southwest  Level Estimated
12:57PM 41.7240 -71.4282 226° Southwest  Level Estimated
12:58PM 41.7240 -71.4282 226° Southwest  Level Estimated
12:59PM 41.7240 -71.4282 226° Southwest  Level Estimated
01:00PM 41.7240 -71.4282 226° Southwest  Level Estimated
01:01PM 41.7240 -71.4282 226° Southwest  Level Estimated
01:02PM 41.7240 -71.4282 226° Southwest  Level Estimated
01:03PM 41.7240 -71.4282 226° Southwest  Level Estimated
01:04PM 41.7240 -71.4282 226° Southwest  Level Estimated
01:05PM 41.7240 -71.4282 226° Southwest  Level Estimated
01:06PM 41.7240 -71.4282 226° Southwest  Level Estimated
01:07PM 41.7240 -71.4282 226° Southwest  Level Estimated
01:08PM 41.7240 -71.4282 226° Southwest  Level Estimated